createdAt,value
2023-05-19T00:02:09.657Z,15.13
2023-05-19T00:04:37.919Z,15.08
2023-05-19T00:07:05.816Z,15.04
2023-05-19T00:09:33.346Z,15.00
2023-05-19T00:12:00.843Z,14.98
2023-05-19T00:14:29.244Z,14.95
2023-05-19T00:16:58.142Z,14.93
2023-05-19T00:19:26.308Z,14.91
2023-05-19T00:21:53.739Z,14.90
2023-05-19T00:24:21.081Z,14.88
2023-05-19T00:26:48.553Z,14.86
2023-05-19T00:29:18.766Z,14.85
2023-05-19T00:31:46.962Z,14.81
2023-05-19T00:34:14.351Z,14.79
2023-05-19T00:36:41.858Z,14.79
2023-05-19T00:39:09.174Z,14.80
2023-05-19T00:41:36.643Z,14.82
2023-05-19T00:44:04.137Z,14.83
2023-05-19T00:46:31.503Z,14.84
2023-05-19T00:48:58.962Z,14.83
2023-05-19T00:51:27.057Z,14.84
2023-05-19T00:53:54.498Z,14.88
2023-05-19T00:56:22.004Z,14.98
2023-05-19T00:58:51.250Z,15.09
2023-05-19T01:01:21.690Z,15.18
2023-05-19T01:03:50.523Z,15.25
2023-05-19T01:06:19.486Z,15.31
2023-05-19T01:08:47.095Z,15.35
2023-05-19T01:11:14.375Z,15.34
2023-05-19T01:13:42.234Z,15.33
2023-05-19T01:16:30.929Z,15.31
2023-05-19T01:19:13.217Z,15.26
2023-05-19T01:22:13.306Z,15.18
2023-05-19T01:24:47.009Z,15.07
2023-05-19T01:27:42.780Z,14.98
2023-05-19T01:30:19.367Z,14.87
2023-05-19T01:32:46.856Z,14.81
2023-05-19T01:35:14.308Z,14.74
2023-05-19T01:37:41.668Z,14.67
2023-05-19T01:40:10.985Z,14.59
2023-05-19T01:42:40.170Z,14.51
2023-05-19T01:45:10.866Z,14.43
2023-05-19T01:47:42.556Z,14.34
2023-05-19T01:50:10.233Z,14.27
2023-05-19T01:52:38.001Z,14.20
2023-05-19T01:55:06.354Z,14.12
2023-05-19T01:57:45.987Z,14.06
2023-05-19T02:00:36.234Z,14.00
2023-05-19T02:03:17.801Z,13.95
2023-05-19T02:06:12.659Z,13.91
2023-05-19T02:09:00.468Z,13.90
2023-05-19T02:11:40.690Z,13.90
2023-05-19T02:14:18.086Z,13.89
2023-05-19T02:16:46.704Z,13.89
2023-05-19T02:19:28.334Z,13.89
2023-05-19T02:21:56.560Z,13.89
2023-05-19T02:24:24.040Z,13.89
2023-05-19T02:26:52.305Z,13.88
2023-05-19T02:29:20.615Z,13.87
2023-05-19T02:31:48.262Z,13.85
2023-05-19T02:34:15.712Z,13.84
2023-05-19T02:36:45.923Z,13.83
2023-05-19T02:39:13.385Z,13.81
2023-05-19T02:41:41.160Z,13.82
2023-05-19T02:44:09.037Z,13.82
2023-05-19T02:46:36.497Z,13.84
2023-05-19T02:49:08.153Z,13.87
2023-05-19T02:51:35.536Z,13.90
2023-05-19T02:54:02.999Z,13.92
2023-05-19T02:56:30.542Z,13.95
2023-05-19T02:58:58.755Z,13.99
2023-05-19T03:01:26.620Z,14.04
2023-05-19T03:03:54.166Z,14.09
2023-05-19T03:06:23.642Z,14.15
2023-05-19T03:08:51.218Z,14.22
2023-05-19T03:11:18.660Z,14.27
2023-05-19T03:13:46.346Z,14.33
2023-05-19T03:16:14.207Z,14.41
2023-05-19T03:18:41.940Z,14.47
2023-05-19T03:21:09.432Z,14.54
2023-05-19T03:23:36.956Z,14.61
2023-05-19T03:26:04.469Z,14.69
2023-05-19T03:28:31.749Z,14.76
2023-05-19T03:30:59.346Z,14.84
2023-05-19T03:33:30.194Z,14.91
2023-05-19T03:35:57.817Z,14.96
2023-05-19T03:38:25.861Z,15.02
2023-05-19T03:40:57.199Z,15.08
2023-05-19T03:43:24.528Z,15.15
2023-05-19T03:45:56.556Z,15.21
2023-05-19T03:48:52.880Z,15.29
2023-05-19T03:51:30.130Z,15.36
2023-05-19T04:03:42.366Z,15.71
2023-05-19T04:06:09.907Z,15.78
2023-05-19T04:08:37.308Z,15.84
2023-05-19T04:11:04.903Z,15.92
2023-05-19T04:13:35.616Z,15.99
2023-05-19T04:16:03.196Z,16.09
2023-05-19T04:18:30.885Z,16.19
2023-05-19T04:20:58.137Z,16.30
2023-05-19T04:23:26.115Z,16.41
2023-05-19T04:25:54.604Z,16.53
2023-05-19T04:28:21.940Z,16.61
2023-05-19T04:30:50.898Z,16.72
2023-05-19T04:33:20.311Z,16.84
2023-05-19T04:35:48.094Z,16.98
2023-05-19T04:38:19.151Z,17.10
2023-05-19T04:40:50.506Z,17.23
2023-05-19T04:43:19.569Z,17.34
2023-05-19T04:45:50.386Z,17.44
2023-05-19T04:48:18.223Z,17.56
2023-05-19T04:50:45.632Z,17.68
2023-05-19T04:53:13.247Z,17.81
2023-05-19T04:55:40.621Z,17.92
2023-05-19T04:58:08.196Z,18.01
2023-05-19T05:00:36.101Z,18.13
2023-05-19T05:03:07.416Z,18.26
2023-05-19T05:05:35.251Z,18.41
2023-05-19T05:08:03.329Z,18.56
2023-05-19T05:10:35.287Z,18.70
2023-05-19T05:13:03.137Z,18.83
2023-05-19T05:15:31.321Z,18.96
2023-05-19T05:18:00.574Z,19.06
2023-05-19T05:20:28.409Z,19.13
2023-05-19T05:22:56.116Z,19.24
2023-05-19T05:25:24.085Z,19.38
2023-05-19T05:27:51.701Z,19.51
2023-05-19T05:30:19.548Z,19.61
2023-05-19T05:32:47.238Z,19.74
2023-05-19T05:35:35.061Z,19.87
2023-05-19T05:38:03.223Z,19.95
2023-05-19T05:40:31.173Z,20.02
2023-05-19T05:43:01.493Z,20.10
2023-05-19T05:45:31.212Z,20.24
2023-05-19T05:48:00.888Z,20.37
2023-05-19T05:50:28.964Z,20.47
2023-05-19T05:52:56.291Z,20.50
2023-05-19T05:55:24.812Z,20.60
2023-05-19T05:57:52.313Z,20.74
2023-05-19T06:00:22.713Z,20.87
2023-05-19T06:02:52.431Z,21.00
2023-05-19T06:05:21.772Z,21.14
2023-05-19T06:07:50.201Z,21.23
2023-05-19T06:10:21.470Z,21.30
2023-05-19T06:12:49.735Z,21.33
2023-05-19T06:15:17.279Z,21.40
2023-05-19T06:18:13.756Z,21.57
2023-05-19T06:20:40.990Z,21.73
2023-05-19T06:23:08.451Z,21.93
2023-05-19T06:25:36.463Z,22.10
2023-05-19T06:28:04.040Z,22.20
2023-05-19T06:30:31.785Z,22.28
2023-05-19T06:33:09.414Z,22.24
2023-05-19T06:35:37.152Z,22.31
2023-05-19T06:38:04.739Z,22.48
2023-05-19T06:40:33.472Z,22.67
2023-05-19T06:43:01.105Z,22.80
2023-05-19T06:45:41.649Z,22.92
2023-05-19T06:48:09.172Z,23.03
2023-05-19T06:50:37.081Z,23.02
2023-05-19T06:53:06.358Z,23.10
2023-05-19T06:55:37.115Z,23.21
2023-05-19T06:58:08.966Z,23.38
2023-05-19T07:00:37.155Z,23.54
2023-05-19T07:03:06.100Z,23.72
2023-05-19T07:05:33.535Z,23.87
2023-05-19T07:08:01.915Z,23.96
2023-05-19T07:10:29.574Z,24.09
2023-05-19T07:12:58.328Z,24.20
2023-05-19T07:15:27.813Z,24.27
2023-05-19T07:17:55.281Z,24.33
2023-05-19T07:20:22.719Z,24.45
2023-05-19T07:22:50.681Z,24.58
2023-05-19T07:25:17.974Z,24.64
2023-05-19T07:27:47.057Z,24.65
2023-05-19T07:30:14.470Z,24.74
2023-05-19T07:32:41.932Z,24.93
2023-05-19T07:35:09.426Z,25.14
2023-05-19T07:37:37.023Z,25.30
2023-05-19T07:40:05.450Z,25.40
2023-05-19T07:42:32.777Z,25.44
2023-05-19T07:45:00.143Z,25.49
2023-05-19T07:47:27.583Z,25.53
2023-05-19T07:49:54.969Z,25.66
2023-05-19T07:52:22.305Z,25.80
2023-05-19T07:54:49.681Z,25.87
2023-05-19T07:57:17.159Z,25.90
2023-05-19T07:59:44.609Z,26.03
2023-05-19T08:02:12.010Z,26.11
2023-05-19T08:04:39.710Z,26.27
2023-05-19T08:07:07.398Z,26.43
2023-05-19T08:09:34.627Z,26.52
2023-05-19T08:12:02.432Z,26.64
2023-05-19T08:14:29.869Z,26.72
2023-05-19T08:16:57.225Z,26.75
2023-05-19T08:19:24.729Z,26.91
2023-05-19T08:21:52.344Z,27.02
2023-05-19T08:24:19.287Z,27.08
2023-05-19T08:26:46.329Z,27.20
2023-05-19T08:29:13.248Z,27.32
2023-05-19T08:31:41.032Z,27.19
2023-05-19T08:34:08.484Z,27.18
2023-05-19T08:36:35.970Z,27.35
2023-05-19T08:39:03.894Z,27.42
2023-05-19T08:41:31.515Z,27.48
2023-05-19T08:43:58.959Z,27.58
2023-05-19T08:46:27.087Z,27.57
2023-05-19T08:48:55.571Z,27.56
2023-05-19T08:51:41.840Z,27.64
2023-05-19T08:54:16.138Z,27.66
2023-05-19T08:56:46.605Z,27.72
2023-05-19T08:59:14.262Z,27.83
2023-05-19T09:01:43.465Z,27.80
2023-05-19T09:04:10.872Z,27.80
2023-05-19T09:06:41.260Z,27.90
2023-05-19T09:09:08.863Z,28.01
2023-05-19T09:11:37.888Z,28.15
2023-05-19T09:14:06.051Z,28.37
2023-05-19T09:16:34.277Z,28.56
2023-05-19T09:19:02.085Z,28.69
2023-05-19T09:21:32.857Z,28.78
2023-05-19T09:24:08.428Z,28.86
2023-05-19T09:26:38.594Z,28.96
2023-05-19T09:29:14.407Z,29.01
2023-05-19T09:31:56.128Z,28.96
2023-05-19T09:34:25.039Z,28.70
2023-05-19T09:36:53.778Z,28.63
2023-05-19T09:39:25.641Z,28.85
2023-05-19T09:41:54.182Z,29.13
2023-05-19T09:44:21.558Z,29.30
2023-05-19T09:46:54.039Z,29.35
2023-05-19T09:49:26.249Z,29.53
2023-05-19T09:51:59.784Z,29.69
2023-05-19T09:54:32.268Z,29.69
2023-05-19T09:57:04.010Z,29.35
2023-05-19T09:59:32.874Z,28.87
2023-05-19T10:02:01.595Z,28.37
2023-05-19T10:04:29.722Z,27.94
2023-05-19T10:07:01.209Z,27.60
2023-05-19T10:09:29.522Z,27.37
2023-05-19T10:11:58.353Z,27.21
2023-05-19T10:14:29.497Z,27.10
2023-05-19T10:16:59.857Z,27.19
2023-05-19T10:19:28.350Z,27.50
2023-05-19T10:21:56.147Z,27.89
2023-05-19T10:24:23.099Z,28.22
2023-05-19T10:26:53.595Z,28.31
2023-05-19T10:29:23.508Z,28.20
2023-05-19T10:31:51.064Z,27.87
2023-05-19T10:34:44.090Z,27.53
2023-05-19T10:37:23.701Z,27.15
2023-05-19T10:39:51.539Z,26.86
2023-05-19T10:42:24.184Z,26.64
2023-05-19T10:45:10.879Z,26.51
2023-05-19T10:47:38.330Z,26.41
2023-05-19T10:50:06.912Z,26.34
2023-05-19T10:52:39.398Z,26.32
2023-05-19T10:55:17.882Z,26.50
2023-05-19T10:57:57.124Z,26.77
2023-05-19T11:00:28.772Z,26.94
2023-05-19T11:03:13.863Z,26.83
2023-05-19T11:05:42.525Z,26.59
2023-05-19T11:08:12.413Z,26.35
2023-05-19T11:10:39.777Z,26.17
2023-05-19T11:13:07.184Z,26.02
2023-05-19T11:15:36.584Z,25.91
2023-05-19T11:18:04.701Z,25.88
2023-05-19T11:20:34.999Z,25.91
2023-05-19T11:23:07.148Z,26.03
2023-05-19T11:25:44.923Z,26.16
2023-05-19T11:28:13.491Z,26.31
2023-05-19T11:30:46.148Z,26.56
2023-05-19T11:33:13.920Z,26.93
2023-05-19T11:35:41.348Z,27.18
2023-05-19T11:38:09.048Z,27.20
2023-05-19T11:40:36.462Z,27.14
2023-05-19T11:43:03.905Z,27.09
2023-05-19T11:45:35.103Z,27.00
2023-05-19T11:48:07.181Z,26.93
2023-05-19T11:50:37.139Z,26.92
2023-05-19T11:53:04.381Z,26.90
2023-05-19T11:55:32.599Z,26.91
2023-05-19T11:58:05.599Z,27.14
2023-05-19T12:00:39.846Z,27.54
2023-05-19T12:03:08.394Z,28.06
2023-05-19T12:05:43.663Z,28.54
2023-05-19T12:08:12.166Z,28.82
2023-05-19T12:10:39.998Z,28.92
2023-05-19T12:13:10.829Z,28.80
2023-05-19T12:15:39.433Z,28.73
2023-05-19T12:18:07.619Z,28.73
2023-05-19T12:20:36.550Z,28.83
2023-05-19T12:23:04.164Z,28.98
2023-05-19T12:25:32.234Z,29.08
2023-05-19T12:28:03.364Z,29.23
2023-05-19T12:30:32.052Z,29.26
2023-05-19T12:33:00.022Z,29.17
2023-05-19T12:35:29.106Z,29.02
2023-05-19T12:37:56.454Z,28.81
2023-05-19T12:40:24.004Z,28.46
2023-05-19T12:42:53.634Z,28.09
2023-05-19T12:45:23.663Z,27.73
2023-05-19T12:47:53.082Z,27.44
2023-05-19T12:50:20.650Z,27.25
2023-05-19T12:52:49.969Z,27.08
2023-05-19T12:55:18.208Z,26.94
2023-05-19T12:57:49.339Z,26.75
2023-05-19T13:00:23.188Z,26.57
2023-05-19T13:03:05.696Z,26.40
2023-05-19T13:05:38.631Z,26.23
2023-05-19T13:08:08.142Z,26.08
2023-05-19T13:10:36.634Z,26.01
2023-05-19T13:13:04.231Z,25.94
2023-05-19T13:15:34.643Z,25.92
2023-05-19T13:18:03.866Z,25.91
2023-05-19T13:20:31.589Z,25.91
2023-05-19T13:22:59.622Z,25.92
2023-05-19T13:25:27.328Z,25.90
2023-05-19T13:27:59.547Z,25.87
2023-05-19T13:30:27.656Z,25.84
2023-05-19T13:32:54.994Z,25.80
2023-05-19T13:35:22.360Z,25.78
2023-05-19T13:37:49.965Z,25.86
2023-05-19T13:40:17.859Z,26.02
2023-05-19T13:42:45.678Z,26.21
2023-05-19T13:45:13.094Z,26.54
2023-05-19T13:47:40.502Z,27.09
2023-05-19T13:50:08.193Z,27.59
2023-05-19T13:52:35.600Z,27.80
2023-05-19T13:55:03.973Z,27.68
2023-05-19T13:57:31.398Z,27.35
2023-05-19T14:00:03.232Z,27.19
2023-05-19T14:02:40.840Z,27.30
2023-05-19T14:05:08.847Z,27.15
2023-05-19T14:07:36.309Z,26.77
2023-05-19T14:10:06.144Z,26.43
2023-05-19T14:12:44.907Z,26.13
2023-05-19T14:15:15.019Z,25.81
2023-05-19T14:17:42.473Z,25.58
2023-05-19T14:20:10.322Z,25.39
2023-05-19T14:22:37.821Z,25.23
2023-05-19T14:25:05.493Z,25.11
2023-05-19T14:27:32.924Z,25.03
2023-05-19T14:30:00.358Z,24.95
2023-05-19T14:32:30.018Z,24.89
2023-05-19T14:34:57.935Z,24.86
2023-05-19T14:37:29.037Z,24.84
2023-05-19T14:39:58.006Z,24.81
2023-05-19T14:42:25.325Z,24.80
2023-05-19T14:44:52.648Z,24.81
2023-05-19T14:47:20.069Z,24.81
2023-05-19T14:49:47.630Z,24.81
2023-05-19T14:52:14.979Z,24.81
2023-05-19T14:54:42.469Z,24.77
2023-05-19T14:57:09.806Z,24.73
2023-05-19T14:59:38.174Z,24.67
2023-05-19T15:02:06.200Z,24.64
2023-05-19T15:04:34.802Z,24.63
2023-05-19T15:09:33.530Z,24.55
2023-05-19T15:12:01.700Z,24.51
2023-05-19T15:14:30.893Z,24.47
2023-05-19T15:16:59.278Z,24.45
2023-05-19T15:19:26.987Z,24.49
2023-05-19T15:21:54.455Z,24.51
2023-05-19T15:24:21.994Z,24.54
2023-05-19T15:26:49.455Z,24.57
2023-05-19T15:29:16.867Z,24.66
2023-05-19T15:31:44.316Z,24.85
2023-05-19T15:34:11.959Z,25.07
2023-05-19T15:36:39.426Z,25.14
2023-05-19T15:39:06.865Z,25.06
2023-05-19T15:41:34.474Z,24.88
2023-05-19T15:44:03.024Z,24.73
2023-05-19T15:46:30.756Z,24.61
2023-05-19T15:48:58.203Z,24.49
2023-05-19T15:51:26.052Z,24.41
2023-05-19T15:53:53.654Z,24.40
2023-05-19T15:56:21.744Z,24.40
2023-05-19T15:58:49.193Z,24.46
2023-05-19T16:01:16.755Z,24.58
2023-05-19T16:03:45.635Z,24.72
2023-05-19T16:06:13.537Z,24.82
2023-05-19T16:08:41.085Z,24.83
2023-05-19T16:11:08.543Z,24.81
2023-05-19T16:13:35.861Z,24.87
2023-05-19T16:16:03.779Z,24.91
2023-05-19T16:18:31.198Z,24.84
2023-05-19T16:20:58.575Z,24.70
2023-05-19T16:23:27.766Z,24.53
2023-05-19T16:25:55.163Z,24.35
2023-05-19T16:28:25.019Z,24.13
2023-05-19T16:30:52.672Z,23.95
2023-05-19T16:33:19.983Z,23.78
2023-05-19T16:35:47.271Z,23.62
2023-05-19T16:38:14.736Z,23.49
2023-05-19T16:40:42.156Z,23.38
2023-05-19T16:43:09.700Z,23.26
2023-05-19T16:45:37.098Z,23.16
2023-05-19T16:48:04.572Z,23.05
2023-05-19T16:50:31.982Z,22.95
2023-05-19T16:52:59.301Z,22.84
2023-05-19T16:55:27.085Z,22.74
2023-05-19T16:57:54.446Z,22.64
2023-05-19T17:00:21.932Z,22.56
2023-05-19T17:02:49.532Z,22.46
2023-05-19T17:05:17.165Z,22.35
2023-05-19T17:07:44.585Z,22.25
2023-05-19T17:10:12.219Z,22.17
2023-05-19T17:12:39.600Z,22.09
2023-05-19T17:15:07.625Z,22.00
2023-05-19T17:17:34.993Z,21.91
2023-05-19T17:20:02.279Z,21.81
2023-05-19T17:22:30.392Z,21.73
2023-05-19T17:24:58.019Z,21.64
2023-05-19T17:27:25.643Z,21.58
2023-05-19T17:29:53.118Z,21.52
2023-05-19T17:32:25.827Z,21.44
2023-05-19T17:34:53.509Z,21.35
2023-05-19T17:37:23.819Z,21.23
2023-05-19T17:39:51.583Z,21.08
2023-05-19T17:42:18.901Z,20.95
2023-05-19T17:44:46.373Z,20.84
2023-05-19T17:47:13.798Z,20.76
2023-05-19T17:49:41.706Z,20.68
2023-05-19T17:52:09.774Z,20.60
2023-05-19T17:54:37.453Z,20.52
2023-05-19T17:57:06.080Z,20.44
2023-05-19T17:59:33.814Z,20.38
2023-05-19T18:02:01.515Z,20.32
2023-05-19T18:04:29.840Z,20.27
2023-05-19T18:06:57.570Z,20.21
2023-05-19T18:09:28.562Z,20.16
2023-05-19T18:11:57.155Z,20.10
2023-05-19T18:14:24.709Z,20.03
2023-05-19T18:16:52.305Z,19.96
2023-05-19T18:19:19.983Z,19.88
2023-05-19T18:21:47.476Z,19.79
2023-05-19T18:24:15.089Z,19.69
2023-05-19T18:26:43.399Z,19.58
2023-05-19T18:29:11.160Z,19.50
2023-05-19T18:31:38.768Z,19.41
2023-05-19T18:34:06.339Z,19.33
2023-05-19T18:36:35.587Z,19.25
2023-05-19T18:39:04.688Z,19.18
2023-05-19T18:41:32.276Z,19.10
2023-05-19T18:43:59.721Z,19.02
2023-05-19T18:46:27.358Z,18.95
2023-05-19T18:48:54.762Z,18.88
2023-05-19T18:51:22.710Z,18.81
2023-05-19T18:53:50.961Z,18.72
2023-05-19T18:56:28.225Z,18.66
2023-05-19T18:58:55.753Z,18.66
2023-05-19T19:01:23.613Z,18.65
2023-05-19T19:03:51.536Z,18.65
2023-05-19T19:06:20.827Z,18.69
2023-05-19T19:08:48.224Z,18.76
2023-05-19T19:11:15.955Z,18.84
2023-05-19T19:13:43.928Z,18.90
2023-05-19T19:16:11.398Z,18.93
2023-05-19T19:18:38.853Z,18.93
2023-05-19T19:21:06.496Z,18.92
2023-05-19T19:23:34.397Z,18.89
2023-05-19T19:26:01.730Z,18.85
2023-05-19T19:28:29.282Z,18.79
2023-05-19T19:30:56.873Z,18.74
2023-05-19T19:33:24.830Z,18.68
2023-05-19T19:35:52.319Z,18.62
2023-05-19T19:38:19.833Z,18.55
2023-05-19T19:40:47.598Z,18.47
2023-05-19T19:43:14.978Z,18.39
2023-05-19T19:45:42.311Z,18.32
2023-05-19T19:48:09.333Z,18.26
2023-05-19T19:50:36.549Z,18.22
2023-05-19T19:53:03.598Z,18.23
2023-05-19T19:55:30.979Z,18.27
2023-05-19T19:57:58.367Z,18.28
2023-05-19T20:00:25.788Z,18.26
2023-05-19T20:03:03.469Z,18.21
2023-05-19T20:05:31.846Z,18.14
2023-05-19T20:07:59.266Z,18.07
2023-05-19T20:10:26.969Z,18.02
2023-05-19T20:12:54.413Z,17.99
2023-05-19T20:15:21.921Z,17.94
2023-05-19T20:17:49.216Z,17.89
2023-05-19T20:20:16.699Z,17.83
2023-05-19T20:22:46.948Z,17.82
2023-05-19T20:25:14.548Z,17.85
2023-05-19T20:27:41.825Z,17.89
2023-05-19T20:30:09.732Z,17.91
2023-05-19T20:32:37.267Z,17.90
2023-05-19T20:35:04.994Z,17.88
2023-05-19T20:37:32.519Z,17.83
2023-05-19T20:39:59.836Z,17.74
2023-05-19T20:42:27.034Z,17.66
2023-05-19T20:44:54.441Z,17.58
2023-05-19T20:47:21.947Z,17.49
2023-05-19T20:49:49.396Z,17.42
2023-05-19T20:52:16.893Z,17.34
2023-05-19T20:54:44.428Z,17.27
2023-05-19T20:57:12.847Z,17.20
2023-05-19T20:59:40.338Z,17.12
2023-05-19T21:02:08.493Z,17.05
2023-05-19T21:04:36.489Z,16.99
2023-05-19T21:07:04.070Z,16.92
2023-05-19T21:09:31.580Z,16.86
2023-05-19T21:11:59.043Z,16.79
2023-05-19T21:14:26.693Z,16.71
2023-05-19T21:16:54.497Z,16.63
2023-05-19T21:19:23.225Z,16.57
2023-05-19T21:21:51.164Z,16.50
2023-05-19T21:24:18.652Z,16.42
2023-05-19T21:26:46.262Z,16.34
2023-05-19T21:29:13.656Z,16.27
2023-05-19T21:31:41.151Z,16.21
2023-05-19T21:34:08.648Z,16.14
2023-05-19T21:36:36.246Z,16.08
2023-05-19T21:39:04.715Z,16.03
2023-05-19T21:41:32.598Z,16.00
2023-05-19T21:44:00.134Z,15.96
2023-05-19T21:46:29.309Z,15.93
2023-05-19T21:48:56.912Z,15.92
2023-05-19T21:51:24.193Z,15.92
2023-05-19T21:53:51.709Z,15.97
2023-05-19T21:56:19.075Z,16.00
2023-05-19T21:58:46.306Z,16.02
2023-05-19T22:01:14.659Z,16.02
2023-05-19T22:03:42.317Z,16.02
2023-05-19T22:06:09.757Z,16.02
2023-05-19T22:08:37.187Z,16.00
2023-05-19T22:11:04.999Z,15.97
2023-05-19T22:13:32.453Z,15.94
2023-05-19T22:15:59.977Z,15.90
2023-05-19T22:18:27.204Z,15.86
2023-05-19T22:20:54.427Z,15.81
2023-05-19T22:23:21.829Z,15.75
2023-05-19T22:25:49.155Z,15.70
2023-05-19T22:28:16.506Z,15.65
2023-05-19T22:30:44.436Z,15.60
2023-05-19T22:33:12.183Z,15.54
2023-05-19T22:35:39.698Z,15.49
2023-05-19T22:38:08.869Z,15.45
2023-05-19T22:40:38.033Z,15.40
2023-05-19T22:43:05.291Z,15.36
2023-05-19T22:45:33.929Z,15.34
2023-05-19T22:48:01.800Z,15.33
2023-05-19T22:50:29.024Z,15.32
2023-05-19T22:52:56.404Z,15.32
2023-05-19T22:55:23.750Z,15.34
2023-05-19T22:57:51.515Z,15.36
2023-05-19T23:00:21.060Z,15.41
2023-05-19T23:02:48.455Z,15.45
2023-05-19T23:05:16.034Z,15.48
2023-05-19T23:07:43.682Z,15.50
2023-05-19T23:10:11.433Z,15.50
2023-05-19T23:12:40.144Z,15.47
2023-05-19T23:15:08.509Z,15.45
2023-05-19T23:17:36.456Z,15.45
2023-05-19T23:20:04.230Z,15.47
2023-05-19T23:22:31.592Z,15.49
2023-05-19T23:25:01.534Z,15.50
2023-05-19T23:27:28.460Z,15.49
2023-05-19T23:29:55.459Z,15.47
2023-05-19T23:32:22.316Z,15.42
2023-05-19T23:34:49.801Z,15.39
2023-05-19T23:37:17.224Z,15.34
2023-05-19T23:39:44.568Z,15.30
2023-05-19T23:42:13.297Z,15.26
2023-05-19T23:44:40.796Z,15.23
2023-05-19T23:47:08.251Z,15.21
2023-05-19T23:49:35.998Z,15.21
2023-05-19T23:52:03.518Z,15.21
2023-05-19T23:54:31.327Z,15.21
2023-05-19T23:56:58.662Z,15.22
2023-05-19T23:59:26.229Z,15.24
